Etusivu
METAR-TAF:

METAR-TAF

Lentoasemat :

Waseca Municipal Airport

Waseca, Minnesota, Yhdysvallat

Leveyspiiri: 44-04-24N, Pituuspiiri: 093-33-11W, korkeus merenpinnasta: 343 m

Tämänhetkinen sää

Tämä raportti tehtiin 25 minuuttia sitten, kello 09.55 UTC
Tuuli 11 kn kaakosta
Lämpötila 0°C
Kosteus 100%
Ilmanpaine 1017 hPa
Näkyvyys: 4.0 km
Pilvistä 700 ft:n korkeudessa
heikkoa tihkusadetta

METAR: KACQ 240955Z AUTO 13011KT 2 1/2SM -DZ OVC007 00/00 A3003 RMK AO2 LTG DSNT SE

Aika: 04:20 (10:20 UTC)


TAF: puuttuu

Säähavainnot ja -ennusteet yli 4000 lentoasemalta (METAR- ja TAF-raportit).

Käytössä olevat sääasemat on merkitty karttaan keltaisilla ja punaisilla pisteillä.

Aseta hiiri pisteen päälle nähdäksesi sääaseman nimen.

Klikkaa sitten nähdäksesi säähavainnot ja -ennusteet.

Kartan vaihtaminen: klikkaa mustalla rastilla varustettuja vihreitä pisteitä, niin voit zoomata sisään; viivalla varustettua vihreää pistettä, niin voit zoomata ulos tai vihreitä nuolia, niin pääset viereisille kartoille.


METAR-TAF: